Terminal Aerodrome Forecast
Issued by NWS Atlanta, GA

Home | Current Version | Previous Version | Text Only | Print | Product List | Glossary On
Versions: 1 2 3 4 5 6 7 8 9 10 11 12 13 14 15
273
FTUS42 KFFC 231128
TAFMCN
TAF
KMCN 231128Z 2312/2412 23004KT P6SM VCSH SCT040 SCT250
     FM231400 23004KT P6SM SCT035
     FM231700 24008KT P6SM VCSH BKN040
      TEMPO 2320/2324 3SM TSRA BKN035CB
     FM240200 24005KT P6SM SCT035 BKN050
     FM240600 24005KT P6SM SCT250=

USA.gov is the U.S. government's official web portal to all federal, state and local government web resources and services.